createdAt,value
2024-02-24T00:00:24.507Z,88.29
2024-02-24T00:02:50.811Z,88.91
2024-02-24T00:05:17.501Z,87.53
2024-02-24T00:07:43.897Z,88.94
2024-02-24T00:10:10.514Z,88.42
2024-02-24T00:12:37.032Z,88.53
2024-02-24T00:15:03.825Z,88.12
2024-02-24T00:17:30.444Z,88.08
2024-02-24T00:19:57.024Z,88.19
2024-02-24T00:22:23.542Z,87.85
2024-02-24T00:24:49.816Z,88.33
2024-02-24T00:27:16.226Z,87.89
2024-02-24T00:29:43.026Z,87.98
2024-02-24T00:32:09.374Z,88.75
2024-02-24T00:34:35.912Z,89.21
2024-02-24T00:37:02.180Z,89.12
2024-02-24T00:39:28.691Z,89.08
2024-02-24T00:41:55.024Z,88.45
2024-02-24T00:44:21.561Z,88.82
2024-02-24T00:46:48.084Z,88.20
2024-02-24T00:49:14.400Z,88.08
2024-02-24T00:51:42.727Z,88.93
2024-02-24T00:54:09.457Z,87.13
2024-02-24T00:56:37.087Z,87.99
2024-02-24T00:59:03.775Z,87.46
2024-02-24T01:01:30.089Z,87.57
2024-02-24T01:03:56.590Z,88.06
2024-02-24T01:06:22.979Z,88.41
2024-02-24T01:08:49.627Z,87.97
2024-02-24T01:11:16.382Z,88.99
2024-02-24T01:13:43.925Z,88.81
2024-02-24T01:16:10.412Z,89.33
2024-02-24T01:18:37.135Z,88.11
2024-02-24T01:21:04.260Z,89.32
2024-02-24T01:23:30.803Z,89.03
2024-02-24T01:25:57.142Z,88.80
2024-02-24T01:28:23.646Z,88.45
2024-02-24T01:30:50.247Z,87.87
2024-02-24T01:33:17.163Z,88.84
2024-02-24T01:35:43.811Z,88.10
2024-02-24T01:38:11.289Z,90.28
2024-02-24T01:40:37.610Z,90.65
2024-02-24T01:43:04.329Z,90.67
2024-02-24T01:45:30.710Z,89.55
2024-02-24T01:47:58.175Z,89.13
2024-02-24T01:50:25.141Z,88.96
2024-02-24T01:52:51.599Z,90.13
2024-02-24T01:55:19.295Z,88.59
2024-02-24T01:57:45.639Z,88.97
2024-02-24T02:00:12.843Z,89.22
2024-02-24T02:02:40.325Z,90.22
2024-02-24T02:05:07.728Z,90.83
2024-02-24T02:07:34.725Z,90.21
2024-02-24T02:10:01.088Z,90.91
2024-02-24T02:12:28.411Z,90.06
2024-02-24T02:14:55.116Z,91.44
2024-02-24T02:17:22.295Z,90.33
2024-02-24T02:19:49.474Z,90.13
2024-02-24T02:22:17.193Z,90.98
2024-02-24T02:24:47.090Z,89.98
2024-02-24T02:27:13.797Z,90.45
2024-02-24T02:29:40.614Z,91.00
2024-02-24T02:32:09.078Z,90.04
2024-02-24T02:34:35.892Z,89.92
2024-02-24T02:37:02.316Z,90.29
2024-02-24T02:39:29.099Z,89.59
2024-02-24T02:41:55.421Z,89.85
2024-02-24T02:44:21.908Z,89.51
2024-02-24T02:46:48.706Z,89.61
2024-02-24T02:49:16.115Z,90.36
2024-02-24T02:51:42.770Z,89.82
2024-02-24T02:54:09.172Z,89.43
2024-02-24T02:56:35.888Z,90.82
2024-02-24T02:59:02.244Z,89.88
2024-02-24T03:01:29.436Z,90.80
2024-02-24T03:03:55.805Z,89.94
2024-02-24T03:06:22.257Z,90.57
2024-02-24T03:08:49.006Z,90.25
2024-02-24T03:11:19.118Z,90.09
2024-02-24T03:13:45.855Z,91.92
2024-02-24T03:16:12.160Z,90.03
2024-02-24T03:18:38.717Z,89.37
2024-02-24T03:21:05.201Z,90.33
2024-02-24T03:23:31.925Z,91.26
2024-02-24T03:25:58.215Z,90.11
2024-02-24T03:28:24.730Z,91.07
2024-02-24T03:30:51.006Z,90.33
2024-02-24T03:33:18.628Z,90.18
2024-02-24T03:35:45.312Z,90.19
2024-02-24T03:38:11.692Z,91.24
2024-02-24T03:40:38.497Z,90.03
2024-02-24T03:43:04.831Z,89.88
2024-02-24T03:45:33.627Z,91.73
2024-02-24T03:48:00.142Z,90.11
2024-02-24T03:50:26.816Z,89.80
2024-02-24T03:52:53.338Z,89.80
2024-02-24T03:55:19.844Z,90.70
2024-02-24T03:57:46.139Z,91.30
2024-02-24T04:00:12.796Z,91.20
2024-02-24T04:02:39.968Z,92.19
2024-02-24T04:05:06.450Z,90.21
2024-02-24T04:07:33.014Z,89.60
2024-02-24T04:09:59.304Z,91.30
2024-02-24T04:12:26.057Z,90.49
2024-02-24T04:14:52.580Z,91.00
2024-02-24T04:17:19.139Z,90.54
2024-02-24T04:19:45.642Z,91.15
2024-02-24T04:22:11.954Z,91.66
2024-02-24T04:24:38.467Z,91.91
2024-02-24T04:27:05.191Z,91.82
2024-02-24T04:29:31.497Z,92.52
2024-02-24T04:31:58.534Z,91.64
2024-02-24T04:34:24.872Z,91.94
2024-02-24T04:36:51.156Z,92.34
2024-02-24T04:39:17.717Z,92.24
2024-02-24T04:41:44.274Z,91.75
2024-02-24T04:44:10.918Z,91.05
2024-02-24T04:46:39.496Z,91.72
2024-02-24T04:49:06.080Z,91.11
2024-02-24T04:51:32.432Z,90.82
2024-02-24T04:53:58.718Z,90.89
2024-02-24T04:56:26.990Z,92.41
2024-02-24T04:58:53.342Z,91.96
2024-02-24T05:01:19.764Z,90.67
2024-02-24T05:03:46.099Z,91.35
2024-02-24T05:06:12.821Z,91.42
2024-02-24T05:08:39.353Z,92.44
2024-02-24T05:11:06.111Z,92.62
2024-02-24T05:13:32.744Z,92.94
2024-02-24T05:15:59.344Z,91.56
2024-02-24T05:18:26.089Z,91.61
2024-02-24T05:20:52.507Z,91.86
2024-02-24T05:23:19.156Z,92.00
2024-02-24T05:25:48.523Z,92.73
2024-02-24T05:28:15.934Z,92.63
2024-02-24T05:30:42.217Z,91.55
2024-02-24T05:33:09.263Z,92.41
2024-02-24T05:35:35.702Z,91.92
2024-02-24T05:38:02.239Z,92.81
2024-02-24T05:40:28.506Z,93.07
2024-02-24T05:42:55.210Z,92.90
2024-02-24T05:45:21.508Z,92.07
2024-02-24T05:47:47.865Z,91.33
2024-02-24T05:50:14.566Z,92.38
2024-02-24T05:52:40.915Z,92.56
2024-02-24T05:55:10.156Z,92.37
2024-02-24T05:57:36.771Z,93.08
2024-02-24T06:00:05.602Z,93.55
2024-02-24T06:02:32.665Z,93.43
2024-02-24T06:04:59.308Z,93.25
2024-02-24T06:07:25.596Z,93.05
2024-02-24T06:09:52.089Z,92.89
2024-02-24T06:12:18.499Z,93.32
2024-02-24T06:14:44.975Z,93.54
2024-02-24T06:17:11.279Z,92.80
2024-02-24T06:19:37.772Z,92.80
2024-02-24T06:22:04.238Z,92.42
2024-02-24T06:24:30.583Z,92.92
2024-02-24T06:26:57.127Z,93.34
2024-02-24T06:29:23.692Z,93.56
2024-02-24T06:31:50.202Z,93.50
2024-02-24T06:34:16.600Z,93.78
2024-02-24T06:36:43.236Z,92.75
2024-02-24T06:39:09.928Z,93.11
2024-02-24T06:41:36.458Z,92.85
2024-02-24T06:44:02.777Z,92.67
2024-02-24T06:46:29.338Z,92.94
2024-02-24T06:48:55.810Z,93.36
2024-02-24T06:51:23.108Z,93.42
2024-02-24T06:53:49.780Z,93.53
2024-02-24T06:56:20.248Z,93.59
2024-02-24T06:58:46.830Z,92.80
2024-02-24T07:01:21.029Z,93.19
2024-02-24T07:03:47.546Z,92.09
2024-02-24T07:06:14.093Z,92.20
2024-02-24T07:08:40.621Z,91.56
2024-02-24T07:11:06.944Z,90.95
2024-02-24T07:13:33.493Z,91.30
2024-02-24T07:15:59.994Z,90.93
2024-02-24T07:18:26.524Z,90.70
2024-02-24T07:20:52.994Z,90.14
2024-02-24T07:23:19.587Z,90.38
2024-02-24T07:25:45.932Z,90.83
2024-02-24T07:28:12.538Z,89.10
2024-02-24T07:30:38.847Z,89.48
2024-02-24T07:33:05.672Z,89.70
2024-02-24T07:35:32.131Z,89.95
2024-02-24T07:37:58.691Z,89.38
2024-02-24T07:40:25.203Z,89.12
2024-02-24T07:42:51.616Z,90.07
2024-02-24T07:45:18.243Z,90.43
2024-02-24T07:47:44.674Z,90.14
2024-02-24T07:50:11.461Z,89.97
2024-02-24T07:52:38.371Z,89.78
2024-02-24T07:55:05.035Z,89.05
2024-02-24T07:57:31.363Z,87.90
2024-02-24T07:59:57.698Z,87.66
2024-02-24T08:02:24.013Z,87.66
2024-02-24T08:04:50.378Z,88.09
2024-02-24T08:07:16.714Z,85.88
2024-02-24T08:09:43.035Z,86.78
2024-02-24T08:12:09.744Z,87.94
2024-02-24T08:14:37.302Z,86.61
2024-02-24T08:17:03.883Z,85.20
2024-02-24T08:19:34.753Z,88.42
2024-02-24T08:22:01.716Z,86.82
2024-02-24T08:24:28.017Z,84.98
2024-02-24T08:26:54.460Z,87.79
2024-02-24T08:29:20.792Z,84.97
2024-02-24T08:31:47.155Z,85.70
2024-02-24T08:34:14.267Z,85.50
2024-02-24T08:36:40.800Z,87.61
2024-02-24T08:39:07.422Z,84.70
2024-02-24T08:41:34.895Z,84.64
2024-02-24T08:44:02.855Z,83.66
2024-02-24T08:46:29.752Z,85.48
2024-02-24T08:48:56.485Z,84.27
2024-02-24T08:51:22.953Z,82.90
2024-02-24T08:53:49.632Z,84.47
2024-02-24T08:56:20.057Z,85.54
2024-02-24T08:58:46.694Z,86.04
2024-02-24T09:01:15.353Z,88.54
2024-02-24T09:03:42.088Z,85.58
2024-02-24T09:06:09.134Z,84.32
2024-02-24T09:08:35.623Z,84.14
2024-02-24T09:11:02.246Z,84.74
2024-02-24T09:13:28.670Z,84.48
2024-02-24T09:15:55.290Z,84.45
2024-02-24T09:18:21.985Z,84.65
2024-02-24T09:20:48.363Z,83.84
2024-02-24T09:23:15.095Z,82.47
2024-02-24T09:25:41.401Z,82.22
2024-02-24T09:28:10.402Z,80.38
2024-02-24T09:30:38.081Z,82.18
2024-02-24T09:33:04.914Z,78.18
2024-02-24T09:35:31.579Z,75.13
2024-02-24T09:37:58.108Z,77.34
2024-02-24T09:40:24.468Z,75.54
2024-02-24T09:42:51.685Z,77.42
2024-02-24T09:45:19.657Z,69.87
2024-02-24T09:47:46.421Z,71.79
2024-02-24T09:50:12.881Z,66.41
2024-02-24T09:52:40.531Z,64.56
2024-02-24T09:55:07.704Z,52.48
2024-02-24T09:57:36.680Z,59.22
2024-02-24T10:00:05.419Z,51.52
2024-02-24T10:02:31.943Z,60.42
2024-02-24T10:04:58.396Z,47.46
2024-02-24T10:07:25.435Z,51.37
2024-02-24T10:09:51.732Z,58.44
2024-02-24T10:12:18.270Z,48.68
2024-02-24T10:14:44.841Z,56.33
2024-02-24T10:17:11.530Z,63.72
2024-02-24T10:19:38.210Z,48.17
2024-02-24T10:22:07.337Z,65.73
2024-02-24T10:24:35.343Z,52.17
2024-02-24T10:27:02.747Z,45.22
2024-02-24T10:29:32.787Z,52.40
2024-02-24T10:31:59.803Z,58.24
2024-02-24T10:34:26.888Z,47.18
2024-02-24T10:36:53.276Z,50.63
2024-02-24T10:39:20.229Z,61.80
2024-02-24T10:41:47.228Z,61.56
2024-02-24T10:44:22.313Z,60.55
2024-02-24T10:46:50.592Z,61.21
2024-02-24T10:49:17.636Z,70.95
2024-02-24T10:51:47.348Z,61.33
2024-02-24T10:54:16.386Z,55.76
2024-02-24T10:56:43.555Z,48.74
2024-02-24T10:59:10.288Z,57.98
2024-02-24T11:01:44.197Z,44.07
2024-02-24T11:04:12.048Z,56.29
2024-02-24T11:06:46.299Z,45.20
2024-02-24T11:09:17.059Z,58.44
2024-02-24T11:11:44.364Z,46.64
2024-02-24T11:14:10.950Z,44.93
2024-02-24T11:16:39.424Z,41.35
2024-02-24T11:19:11.829Z,48.95
2024-02-24T11:21:57.411Z,50.86
2024-02-24T11:24:23.806Z,57.80
2024-02-24T11:26:50.527Z,42.23
2024-02-24T11:29:17.641Z,45.86
2024-02-24T11:31:45.222Z,49.15
2024-02-24T11:34:13.099Z,54.53
2024-02-24T11:36:40.346Z,48.96
2024-02-24T11:39:12.529Z,57.34
2024-02-24T11:41:41.476Z,47.78
2024-02-24T11:44:08.512Z,59.71
2024-02-24T11:46:36.224Z,48.62
2024-02-24T11:49:03.670Z,59.02
2024-02-24T11:51:30.208Z,57.75
2024-02-24T11:53:56.813Z,57.37
2024-02-24T11:56:24.016Z,64.52
2024-02-24T11:58:50.839Z,66.92
2024-02-24T12:01:17.247Z,69.52
2024-02-24T12:03:50.733Z,72.85
2024-02-24T12:06:18.034Z,75.73
2024-02-24T12:08:45.166Z,70.15
2024-02-24T12:11:12.006Z,71.33
2024-02-24T12:13:39.474Z,64.35
2024-02-24T12:16:06.306Z,68.75
2024-02-24T12:18:34.082Z,65.85
2024-02-24T12:21:00.790Z,67.56
2024-02-24T12:23:30.030Z,51.96
2024-02-24T12:25:56.720Z,54.15
2024-02-24T12:28:23.145Z,53.42
2024-02-24T12:30:49.450Z,40.77
2024-02-24T12:33:18.290Z,44.35
2024-02-24T12:35:47.787Z,45.66
2024-02-24T12:38:20.469Z,53.98
2024-02-24T12:40:47.304Z,44.05
2024-02-24T12:43:13.815Z,48.83
2024-02-24T12:45:40.456Z,46.42
2024-02-24T12:48:08.013Z,58.16
2024-02-24T12:50:34.945Z,52.96
2024-02-24T12:53:04.556Z,54.11
2024-02-24T12:55:31.955Z,67.43
2024-02-24T12:57:58.498Z,53.98
2024-02-24T13:00:25.099Z,54.88
2024-02-24T13:02:52.767Z,43.49
2024-02-24T13:05:19.396Z,59.19
2024-02-24T13:07:46.072Z,55.92
2024-02-24T13:10:12.525Z,62.37
2024-02-24T13:12:39.299Z,68.28
2024-02-24T13:15:06.166Z,70.52
2024-02-24T13:17:32.537Z,74.55
2024-02-24T13:19:59.119Z,69.35
2024-02-24T13:22:25.462Z,68.42
2024-02-24T13:24:52.075Z,66.68
2024-02-24T13:27:18.359Z,66.18
2024-02-24T13:29:45.148Z,68.49
2024-02-24T13:32:11.791Z,67.90
2024-02-24T13:34:38.209Z,71.97
2024-02-24T13:37:06.983Z,65.70
2024-02-24T13:39:34.709Z,69.68
2024-02-24T13:42:01.364Z,70.54
2024-02-24T13:44:27.736Z,72.79
2024-02-24T13:46:54.340Z,67.39
2024-02-24T13:49:21.341Z,70.57
2024-02-24T13:51:48.061Z,74.90
2024-02-24T13:54:14.672Z,70.84
2024-02-24T13:56:41.180Z,73.61
2024-02-24T13:59:07.782Z,76.13
2024-02-24T14:01:34.241Z,74.41
2024-02-24T14:04:02.709Z,76.71
2024-02-24T14:06:29.673Z,69.25
2024-02-24T14:08:56.411Z,74.43
2024-02-24T14:11:22.844Z,71.52
2024-02-24T14:13:50.042Z,71.26
2024-02-24T14:16:16.577Z,71.76
2024-02-24T14:18:42.977Z,68.34
2024-02-24T14:21:09.723Z,76.02
2024-02-24T14:23:38.549Z,68.06
2024-02-24T14:26:05.670Z,76.50
2024-02-24T14:28:32.190Z,73.44
2024-02-24T14:30:58.791Z,71.44
2024-02-24T14:33:25.531Z,76.67
2024-02-24T14:35:52.057Z,70.02
2024-02-24T14:38:18.663Z,71.79
2024-02-24T14:40:49.962Z,69.97
2024-02-24T14:43:17.022Z,70.74
2024-02-24T14:45:43.565Z,75.86
2024-02-24T14:48:10.052Z,71.48
2024-02-24T14:50:36.843Z,73.96
2024-02-24T14:53:03.356Z,76.09
2024-02-24T14:55:29.892Z,71.65
2024-02-24T14:57:56.424Z,72.58
2024-02-24T15:00:24.006Z,76.91
2024-02-24T15:03:04.281Z,71.37
2024-02-24T15:05:36.657Z,74.17
2024-02-24T15:08:03.750Z,75.74
2024-02-24T15:10:30.100Z,77.68
2024-02-24T15:12:56.691Z,75.18
2024-02-24T15:15:23.063Z,73.71
2024-02-24T15:17:52.884Z,73.63
2024-02-24T15:20:20.081Z,74.44
2024-02-24T15:22:48.070Z,75.14
2024-02-24T15:25:14.763Z,74.49
2024-02-24T15:27:41.276Z,75.93
2024-02-24T15:30:08.781Z,71.74
2024-02-24T15:32:35.388Z,76.34
2024-02-24T15:35:02.060Z,79.09
2024-02-24T15:37:28.484Z,73.36
2024-02-24T15:39:55.009Z,78.48
2024-02-24T15:42:21.335Z,77.92
2024-02-24T15:44:47.745Z,76.54
2024-02-24T15:47:14.380Z,76.26
2024-02-24T15:49:41.195Z,76.18
2024-02-24T15:52:07.963Z,73.88
2024-02-24T15:54:35.424Z,77.50
2024-02-24T15:57:02.156Z,77.85
2024-02-24T15:59:28.565Z,76.75
2024-02-24T16:01:54.917Z,74.64
2024-02-24T16:04:21.236Z,76.41
2024-02-24T16:06:47.801Z,76.81
2024-02-24T16:09:14.368Z,78.59
2024-02-24T16:11:40.806Z,76.79
2024-02-24T16:14:07.651Z,78.41
2024-02-24T16:16:33.972Z,76.65
2024-02-24T16:19:00.470Z,79.04
2024-02-24T16:21:27.903Z,79.83
2024-02-24T16:23:54.302Z,77.93
2024-02-24T16:26:20.650Z,78.25
2024-02-24T16:28:46.961Z,80.68
2024-02-24T16:31:13.604Z,78.19
2024-02-24T16:33:40.040Z,78.05
2024-02-24T16:36:06.957Z,80.40
2024-02-24T16:38:33.505Z,78.65
2024-02-24T16:40:59.832Z,79.30
2024-02-24T16:43:26.153Z,79.02
2024-02-24T16:45:52.463Z,80.66
2024-02-24T16:48:19.188Z,78.14
2024-02-24T16:50:46.158Z,80.86
2024-02-24T16:53:12.565Z,79.94
2024-02-24T16:55:38.864Z,79.81
2024-02-24T16:58:05.266Z,75.05
2024-02-24T17:00:31.740Z,77.89
2024-02-24T17:02:58.112Z,77.37
2024-02-24T17:05:24.831Z,81.30
2024-02-24T17:07:51.148Z,82.62
2024-02-24T17:10:17.744Z,79.91
2024-02-24T17:12:44.295Z,79.76
2024-02-24T17:15:11.791Z,78.88
2024-02-24T17:17:38.612Z,75.31
2024-02-24T17:20:06.596Z,79.78
2024-02-24T17:22:33.877Z,83.96
2024-02-24T17:25:00.647Z,85.87
2024-02-24T17:27:27.239Z,86.36
2024-02-24T17:29:55.206Z,87.54
2024-02-24T17:32:21.763Z,86.99
2024-02-24T17:34:48.150Z,87.83
2024-02-24T17:37:14.433Z,87.31
2024-02-24T17:39:40.980Z,87.81
2024-02-24T17:42:07.599Z,86.75
2024-02-24T17:44:34.226Z,88.20
2024-02-24T17:47:01.637Z,87.50
2024-02-24T17:49:29.740Z,87.84
2024-02-24T17:51:56.190Z,88.00
2024-02-24T17:54:24.884Z,88.91
2024-02-24T17:56:51.290Z,87.94
2024-02-24T17:59:17.647Z,88.71
2024-02-24T18:01:46.565Z,87.79
2024-02-24T18:04:14.274Z,88.83
2024-02-24T18:06:40.661Z,88.90
2024-02-24T18:09:07.047Z,88.16
2024-02-24T18:11:33.555Z,89.10
2024-02-24T18:14:00.599Z,89.37
2024-02-24T18:16:26.916Z,88.55
2024-02-24T18:18:53.691Z,89.84
2024-02-24T18:21:20.314Z,89.29
2024-02-24T18:23:47.007Z,89.29
2024-02-24T18:26:13.354Z,89.94
2024-02-24T18:28:40.777Z,88.98
2024-02-24T18:31:07.288Z,90.14
2024-02-24T18:33:33.912Z,90.12
2024-02-24T18:36:00.661Z,89.95
2024-02-24T18:38:27.022Z,89.98
2024-02-24T18:40:53.466Z,90.57
2024-02-24T18:43:20.917Z,90.13
2024-02-24T18:45:47.434Z,90.71
2024-02-24T18:48:14.099Z,90.45
2024-02-24T18:50:40.834Z,89.83
2024-02-24T18:53:07.328Z,88.95
2024-02-24T18:55:35.468Z,89.81
2024-02-24T18:58:02.553Z,90.65
2024-02-24T19:00:29.118Z,90.41
2024-02-24T19:02:55.541Z,89.75
2024-02-24T19:05:22.077Z,90.04
2024-02-24T19:07:51.463Z,90.83
2024-02-24T19:10:19.036Z,91.26
2024-02-24T19:12:45.500Z,90.61
2024-02-24T19:15:12.192Z,90.80
2024-02-24T19:17:38.763Z,90.69
2024-02-24T19:20:05.909Z,90.58
2024-02-24T19:22:32.515Z,90.84
2024-02-24T19:24:59.313Z,90.34
2024-02-24T19:27:25.622Z,90.92
2024-02-24T19:29:52.178Z,90.52
2024-02-24T19:32:18.596Z,90.96
2024-02-24T19:34:44.961Z,91.46
2024-02-24T19:37:11.598Z,90.60
2024-02-24T19:39:38.174Z,91.76
2024-02-24T19:42:05.211Z,90.35
2024-02-24T19:44:31.663Z,91.22
2024-02-24T19:46:58.042Z,91.08
2024-02-24T19:49:24.657Z,90.76
2024-02-24T19:51:51.245Z,90.23
2024-02-24T19:54:17.522Z,90.46
2024-02-24T19:56:43.947Z,90.22
2024-02-24T19:59:10.603Z,90.54
2024-02-24T20:01:40.231Z,90.89
2024-02-24T20:04:07.078Z,90.50
2024-02-24T20:06:33.536Z,90.86
2024-02-24T20:09:00.218Z,90.38
2024-02-24T20:11:26.827Z,90.72
2024-02-24T20:13:53.255Z,90.75
2024-02-24T20:16:19.747Z,91.29
2024-02-24T20:18:46.190Z,91.57
2024-02-24T20:21:13.550Z,90.98
2024-02-24T20:23:40.456Z,90.76
2024-02-24T20:26:06.922Z,91.31
2024-02-24T20:28:33.428Z,91.37
2024-02-24T20:30:59.733Z,90.94
2024-02-24T20:33:26.486Z,90.92
2024-02-24T20:35:53.024Z,91.28
2024-02-24T20:38:20.004Z,90.91
2024-02-24T20:40:47.719Z,90.93
2024-02-24T20:43:17.271Z,90.46
2024-02-24T20:45:43.622Z,90.91
2024-02-24T20:48:11.498Z,90.38
2024-02-24T20:50:38.019Z,90.94
2024-02-24T20:53:05.063Z,90.58
2024-02-24T20:55:31.646Z,90.82
2024-02-24T20:57:57.938Z,90.56
2024-02-24T21:00:24.207Z,90.34
2024-02-24T21:02:50.853Z,90.70
2024-02-24T21:05:17.237Z,90.96
2024-02-24T21:07:43.808Z,90.79
2024-02-24T21:10:10.778Z,89.89
2024-02-24T21:12:37.128Z,91.26
2024-02-24T21:15:04.153Z,90.25
2024-02-24T21:17:31.013Z,90.56
2024-02-24T21:20:04.322Z,91.23
2024-02-24T21:22:32.264Z,91.77
2024-02-24T21:25:00.375Z,90.76
2024-02-24T21:27:27.353Z,90.10
2024-02-24T21:29:53.735Z,90.25
2024-02-24T21:32:20.467Z,91.01
2024-02-24T21:34:46.867Z,88.11
2024-02-24T21:37:13.466Z,89.16
2024-02-24T21:39:39.853Z,87.48
2024-02-24T21:42:08.639Z,88.17
2024-02-24T21:44:35.028Z,87.61
2024-02-24T21:47:01.536Z,87.19
2024-02-24T21:49:27.986Z,86.36
2024-02-24T21:51:54.298Z,85.19
2024-02-24T21:54:20.843Z,87.30
2024-02-24T21:56:57.682Z,87.30
2024-02-24T21:59:25.189Z,85.39
2024-02-24T22:01:52.969Z,87.76
2024-02-24T22:04:19.534Z,89.46
2024-02-24T22:06:46.097Z,88.00
2024-02-24T22:09:12.706Z,87.15
2024-02-24T22:11:39.721Z,87.63
2024-02-24T22:14:06.248Z,87.69
2024-02-24T22:16:32.848Z,88.32
2024-02-24T22:18:59.408Z,89.62
2024-02-24T22:21:27.989Z,87.97
2024-02-24T22:23:54.807Z,87.72
2024-02-24T22:26:22.032Z,87.47
2024-02-24T22:28:48.650Z,89.72
2024-02-24T22:31:14.964Z,85.74
2024-02-24T22:33:41.746Z,87.37
2024-02-24T22:36:08.660Z,87.24
2024-02-24T22:38:35.341Z,88.16
2024-02-24T22:41:05.585Z,90.03
2024-02-24T22:43:32.106Z,89.67
2024-02-24T22:45:58.413Z,86.79
2024-02-24T22:48:25.014Z,88.21
2024-02-24T22:50:51.391Z,89.36
2024-02-24T22:53:17.904Z,88.37
2024-02-24T22:55:44.430Z,87.25
2024-02-24T22:58:10.757Z,87.91
2024-02-24T23:00:37.370Z,89.78
2024-02-24T23:03:04.131Z,89.09
2024-02-24T23:05:30.628Z,88.08
2024-02-24T23:07:57.227Z,88.10
2024-02-24T23:10:23.520Z,88.31
2024-02-24T23:12:51.352Z,88.12
2024-02-24T23:15:17.655Z,88.75
2024-02-24T23:17:44.662Z,88.81
2024-02-24T23:20:11.380Z,88.06
2024-02-24T23:22:37.705Z,88.22
2024-02-24T23:25:04.407Z,88.30
2024-02-24T23:27:31.628Z,89.15
2024-02-24T23:29:58.237Z,88.37
2024-02-24T23:32:24.844Z,87.97
2024-02-24T23:34:51.205Z,89.14
2024-02-24T23:37:17.547Z,88.26
2024-02-24T23:39:44.058Z,89.32
2024-02-24T23:42:10.435Z,88.94
2024-02-24T23:44:36.833Z,88.61
2024-02-24T23:47:03.532Z,88.62
2024-02-24T23:49:30.182Z,89.19
2024-02-24T23:51:56.558Z,89.53
2024-02-24T23:54:23.115Z,89.31
2024-02-24T23:56:49.440Z,89.00
2024-02-24T23:59:16.154Z,88.67
